sensor_id;sensor_type;location;lat;lon;timestamp;P1;durP1;ratioP1;P2;durP2;ratioP2
57335;SDS011;43171;50.994;18.204;2023-03-14T00:00:50;3.70;;;3.30;;
57335;SDS011;43171;50.994;18.204;2023-03-14T00:10:33;6.30;;;2.60;;
57335;SDS011;43171;50.994;18.204;2023-03-14T00:20:18;6.20;;;3.40;;
57335;SDS011;43171;50.994;18.204;2023-03-14T00:30:02;5.80;;;3.90;;
57335;SDS011;43171;50.994;18.204;2023-03-14T00:39:45;6.50;;;2.20;;
57335;SDS011;43171;50.994;18.204;2023-03-14T00:49:27;4.30;;;3.20;;
57335;SDS011;43171;50.994;18.204;2023-03-14T00:59:10;5.40;;;3.10;;
57335;SDS011;43171;50.994;18.204;2023-03-14T01:08:53;12.90;;;4.60;;
57335;SDS011;43171;50.994;18.204;2023-03-14T01:18:41;4.70;;;3.20;;
57335;SDS011;43171;50.994;18.204;2023-03-14T01:28:26;7.60;;;3.20;;
57335;SDS011;43171;50.994;18.204;2023-03-14T01:30:52;8.30;;;4.30;;
57335;SDS011;43171;50.994;18.204;2023-03-14T01:40:40;3.90;;;3.50;;
57335;SDS011;43171;50.994;18.204;2023-03-14T01:50:48;5.70;;;3.10;;
57335;SDS011;43171;50.994;18.204;2023-03-14T02:00:30;5.90;;;2.70;;
57335;SDS011;43171;50.994;18.204;2023-03-14T02:10:27;1.00;;;1.00;;
57335;SDS011;43171;50.994;18.204;2023-03-14T02:30:05;3.30;;;3.00;;
57335;SDS011;43171;50.994;18.204;2023-03-14T02:40:02;11.90;;;5.40;;
57335;SDS011;43171;50.994;18.204;2023-03-14T02:50:10;9.60;;;2.40;;
57335;SDS011;43171;50.994;18.204;2023-03-14T02:59:58;7.10;;;3.00;;
57335;SDS011;43171;50.994;18.204;2023-03-14T03:09:41;3.90;;;2.00;;
57335;SDS011;43171;50.994;18.204;2023-03-14T03:19:24;5.80;;;3.50;;
57335;SDS011;43171;50.994;18.204;2023-03-14T03:29:06;8.90;;;3.10;;
57335;SDS011;43171;50.994;18.204;2023-03-14T03:38:48;6.00;;;2.70;;
57335;SDS011;43171;50.994;18.204;2023-03-14T03:48:31;8.10;;;3.50;;
57335;SDS011;43171;50.994;18.204;2023-03-14T03:58:13;5.10;;;3.30;;
57335;SDS011;43171;50.994;18.204;2023-03-14T04:07:56;7.40;;;3.00;;
57335;SDS011;43171;50.994;18.204;2023-03-14T04:17:38;6.50;;;3.40;;
57335;SDS011;43171;50.994;18.204;2023-03-14T04:20:04;7.50;;;3.70;;
57335;SDS011;43171;50.994;18.204;2023-03-14T04:29:46;3.10;;;2.50;;
57335;SDS011;43171;50.994;18.204;2023-03-14T04:39:28;10.10;;;2.60;;
57335;SDS011;43171;50.994;18.204;2023-03-14T04:49:10;4.00;;;2.70;;
57335;SDS011;43171;50.994;18.204;2023-03-14T04:58:53;2.70;;;2.50;;
57335;SDS011;43171;50.994;18.204;2023-03-14T05:08:35;4.60;;;3.20;;
57335;SDS011;43171;50.994;18.204;2023-03-14T05:18:20;3.70;;;2.70;;
57335;SDS011;43171;50.994;18.204;2023-03-14T05:20:46;7.20;;;3.80;;
57335;SDS011;43171;50.994;18.204;2023-03-14T05:30:28;5.90;;;4.50;;
57335;SDS011;43171;50.994;18.204;2023-03-14T05:40:10;4.70;;;3.10;;
57335;SDS011;43171;50.994;18.204;2023-03-14T05:49:53;2.80;;;2.30;;
57335;SDS011;43171;50.994;18.204;2023-03-14T05:59:35;6.70;;;3.30;;
57335;SDS011;43171;50.994;18.204;2023-03-14T06:02:01;6.40;;;3.20;;
57335;SDS011;43171;50.994;18.204;2023-03-14T06:11:45;1.00;;;1.00;;
57335;SDS011;43171;50.994;18.204;2023-03-14T06:21:28;2.90;;;2.20;;
57335;SDS011;43171;50.994;18.204;2023-03-14T06:31:10;3.00;;;2.80;;
57335;SDS011;43171;50.994;18.204;2023-03-14T06:40:52;5.90;;;3.20;;
57335;SDS011;43171;50.994;18.204;2023-03-14T06:50:34;4.30;;;2.80;;
57335;SDS011;43171;50.994;18.204;2023-03-14T07:00:17;4.50;;;2.20;;
57335;SDS011;43171;50.994;18.204;2023-03-14T07:10:01;6.10;;;2.60;;
57335;SDS011;43171;50.994;18.204;2023-03-14T07:19:43;3.50;;;2.20;;
57335;SDS011;43171;50.994;18.204;2023-03-14T07:22:08;11.60;;;4.80;;
57335;SDS011;43171;50.994;18.204;2023-03-14T07:31:51;12.20;;;5.80;;
57335;SDS011;43171;50.994;18.204;2023-03-14T07:34:17;10.30;;;4.70;;
57335;SDS011;43171;50.994;18.204;2023-03-14T07:44:00;1.60;;;1.50;;
57335;SDS011;43171;50.994;18.204;2023-03-14T07:53:42;8.50;;;3.60;;
57335;SDS011;43171;50.994;18.204;2023-03-14T08:03:24;14.20;;;3.80;;
57335;SDS011;43171;50.994;18.204;2023-03-14T08:13:08;7.50;;;4.70;;
57335;SDS011;43171;50.994;18.204;2023-03-14T08:22:52;5.70;;;4.40;;
57335;SDS011;43171;50.994;18.204;2023-03-14T08:39:53;7.60;;;4.10;;
57335;SDS011;43171;50.994;18.204;2023-03-14T08:49:36;4.70;;;3.30;;
57335;SDS011;43171;50.994;18.204;2023-03-14T08:59:20;5.30;;;3.60;;
57335;SDS011;43171;50.994;18.204;2023-03-14T09:01:45;7.60;;;4.20;;
57335;SDS011;43171;50.994;18.204;2023-03-14T09:11:28;12.40;;;3.90;;
57335;SDS011;43171;50.994;18.204;2023-03-14T09:21:11;3.80;;;3.40;;
57335;SDS011;43171;50.994;18.204;2023-03-14T09:30:53;7.10;;;4.10;;
57335;SDS011;43171;50.994;18.204;2023-03-14T09:40:37;4.70;;;4.30;;
57335;SDS011;43171;50.994;18.204;2023-03-14T09:50:36;2.50;;;1.80;;
57335;SDS011;43171;50.994;18.204;2023-03-14T10:00:26;6.10;;;4.00;;
57335;SDS011;43171;50.994;18.204;2023-03-14T10:10:13;9.90;;;4.90;;
57335;SDS011;43171;50.994;18.204;2023-03-14T10:20:44;7.40;;;4.60;;
57335;SDS011;43171;50.994;18.204;2023-03-14T10:30:45;23.10;;;6.50;;
57335;SDS011;43171;50.994;18.204;2023-03-14T10:40:32;9.70;;;4.30;;
57335;SDS011;43171;50.994;18.204;2023-03-14T10:50:30;8.10;;;4.60;;
57335;SDS011;43171;50.994;18.204;2023-03-14T11:10:35;11.80;;;6.20;;
57335;SDS011;43171;50.994;18.204;2023-03-14T11:41:09;10.80;;;6.90;;
57335;SDS011;43171;50.994;18.204;2023-03-14T11:51:27;7.20;;;4.60;;
57335;SDS011;43171;50.994;18.204;2023-03-14T12:12:12;9.30;;;7.00;;
57335;SDS011;43171;50.994;18.204;2023-03-14T12:22:13;8.60;;;3.70;;
57335;SDS011;43171;50.994;18.204;2023-03-14T12:32:26;26.70;;;12.80;;
57335;SDS011;43171;50.994;18.204;2023-03-14T12:42:43;26.80;;;12.70;;
57335;SDS011;43171;50.994;18.204;2023-03-14T12:53:39;17.20;;;10.20;;
57335;SDS011;43171;50.994;18.204;2023-03-14T13:16:47;9.80;;;7.40;;
57335;SDS011;43171;50.994;18.204;2023-03-14T13:26:43;11.20;;;8.30;;
57335;SDS011;43171;50.994;18.204;2023-03-14T13:36:37;17.90;;;7.70;;
57335;SDS011;43171;50.994;18.204;2023-03-14T13:46:23;8.10;;;6.00;;
57335;SDS011;43171;50.994;18.204;2023-03-14T13:56:20;11.70;;;8.40;;
57335;SDS011;43171;50.994;18.204;2023-03-14T14:16:29;11.60;;;5.70;;
57335;SDS011;43171;50.994;18.204;2023-03-14T14:26:16;9.70;;;8.50;;
57335;SDS011;43171;50.994;18.204;2023-03-14T14:46:29;12.60;;;8.10;;
57335;SDS011;43171;50.994;18.204;2023-03-14T14:56:26;9.20;;;6.90;;
57335;SDS011;43171;50.994;18.204;2023-03-14T15:06:21;19.20;;;8.10;;
57335;SDS011;43171;50.994;18.204;2023-03-14T15:16:15;9.50;;;7.10;;
57335;SDS011;43171;50.994;18.204;2023-03-14T15:26:02;18.20;;;9.20;;
57335;SDS011;43171;50.994;18.204;2023-03-14T15:35:48;13.60;;;9.00;;
57335;SDS011;43171;50.994;18.204;2023-03-14T15:45:32;13.60;;;8.40;;
57335;SDS011;43171;50.994;18.204;2023-03-14T15:55:16;11.60;;;7.70;;
57335;SDS011;43171;50.994;18.204;2023-03-14T16:05:09;9.60;;;7.00;;
57335;SDS011;43171;50.994;18.204;2023-03-14T16:14:54;6.90;;;6.00;;
57335;SDS011;43171;50.994;18.204;2023-03-14T16:17:19;11.40;;;8.00;;
57335;SDS011;43171;50.994;18.204;2023-03-14T16:27:03;12.80;;;6.30;;
57335;SDS011;43171;50.994;18.204;2023-03-14T16:36:45;16.40;;;11.10;;
57335;SDS011;43171;50.994;18.204;2023-03-14T16:46:29;14.80;;;10.90;;
57335;SDS011;43171;50.994;18.204;2023-03-14T16:51:21;12.10;;;8.90;;
57335;SDS011;43171;50.994;18.204;2023-03-14T17:01:05;9.30;;;5.30;;
57335;SDS011;43171;50.994;18.204;2023-03-14T17:10:54;8.60;;;6.70;;
57335;SDS011;43171;50.994;18.204;2023-03-14T17:20:46;9.70;;;7.00;;
57335;SDS011;43171;50.994;18.204;2023-03-14T17:30:29;12.40;;;8.30;;
57335;SDS011;43171;50.994;18.204;2023-03-14T17:40:11;19.50;;;12.30;;
57335;SDS011;43171;50.994;18.204;2023-03-14T17:49:53;16.10;;;6.80;;
57335;SDS011;43171;50.994;18.204;2023-03-14T17:59:35;16.50;;;8.80;;
57335;SDS011;43171;50.994;18.204;2023-03-14T18:02:00;20.60;;;13.00;;
57335;SDS011;43171;50.994;18.204;2023-03-14T18:11:42;11.70;;;8.10;;
57335;SDS011;43171;50.994;18.204;2023-03-14T18:14:08;16.10;;;10.60;;
57335;SDS011;43171;50.994;18.204;2023-03-14T18:23:54;5.00;;;3.90;;
57335;SDS011;43171;50.994;18.204;2023-03-14T18:33:40;31.50;;;16.80;;
57335;SDS011;43171;50.994;18.204;2023-03-14T18:43:30;14.00;;;8.50;;
57335;SDS011;43171;50.994;18.204;2023-03-14T18:53:15;15.30;;;8.50;;
57335;SDS011;43171;50.994;18.204;2023-03-14T19:02:57;20.70;;;9.50;;
57335;SDS011;43171;50.994;18.204;2023-03-14T19:12:40;15.00;;;8.20;;
57335;SDS011;43171;50.994;18.204;2023-03-14T19:22:23;20.60;;;7.40;;
57335;SDS011;43171;50.994;18.204;2023-03-14T19:24:49;14.80;;;9.10;;
57335;SDS011;43171;50.994;18.204;2023-03-14T19:34:33;13.50;;;7.30;;
57335;SDS011;43171;50.994;18.204;2023-03-14T19:44:24;10.50;;;7.10;;
57335;SDS011;43171;50.994;18.204;2023-03-14T19:54:08;5.20;;;4.80;;
57335;SDS011;43171;50.994;18.204;2023-03-14T20:03:55;13.80;;;8.80;;
57335;SDS011;43171;50.994;18.204;2023-03-14T20:13:37;11.60;;;7.50;;
57335;SDS011;43171;50.994;18.204;2023-03-14T20:16:04;29.20;;;17.70;;
57335;SDS011;43171;50.994;18.204;2023-03-14T20:25:55;40.50;;;20.40;;
57335;SDS011;43171;50.994;18.204;2023-03-14T20:35:40;12.70;;;9.00;;
57335;SDS011;43171;50.994;18.204;2023-03-14T20:45:25;3.00;;;2.80;;
57335;SDS011;43171;50.994;18.204;2023-03-14T20:55:08;17.90;;;9.00;;
57335;SDS011;43171;50.994;18.204;2023-03-14T21:12:10;8.50;;;6.30;;
57335;SDS011;43171;50.994;18.204;2023-03-14T21:21:55;1.00;;;1.00;;
57335;SDS011;43171;50.994;18.204;2023-03-14T21:38:58;1.10;;;0.90;;
57335;SDS011;43171;50.994;18.204;2023-03-14T21:48:43;0.70;;;0.70;;
57335;SDS011;43171;50.994;18.204;2023-03-14T21:58:28;1.40;;;1.20;;
57335;SDS011;43171;50.994;18.204;2023-03-14T22:08:16;1.40;;;1.30;;
57335;SDS011;43171;50.994;18.204;2023-03-14T22:17:59;1.10;;;1.10;;
57335;SDS011;43171;50.994;18.204;2023-03-14T22:27:42;1.40;;;1.30;;
57335;SDS011;43171;50.994;18.204;2023-03-14T22:37:24;1.60;;;0.90;;
57335;SDS011;43171;50.994;18.204;2023-03-14T22:47:07;0.80;;;0.80;;
57335;SDS011;43171;50.994;18.204;2023-03-14T22:56:48;8.00;;;0.50;;
57335;SDS011;43171;50.994;18.204;2023-03-14T23:06:30;0.90;;;0.90;;
57335;SDS011;43171;50.994;18.204;2023-03-14T23:16:16;2.10;;;1.10;;
57335;SDS011;43171;50.994;18.204;2023-03-14T23:26:04;1.50;;;1.00;;
57335;SDS011;43171;50.994;18.204;2023-03-14T23:35:49;2.10;;;1.60;;
57335;SDS011;43171;50.994;18.204;2023-03-14T23:45:31;0.80;;;0.80;;
57335;SDS011;43171;50.994;18.204;2023-03-14T23:55:13;2.40;;;1.50;;
